createdAt,value
2018-04-07T00:01:39.289Z,6.20
2018-04-07T00:04:43.142Z,6.20
2018-04-07T00:07:47.041Z,6.20
2018-04-07T00:10:51.512Z,6.10
2018-04-07T00:13:56.197Z,6.20
2018-04-07T00:17:01.397Z,6.10
2018-04-07T00:20:06.070Z,6.20
2018-04-07T00:23:10.009Z,6.30
2018-04-07T00:26:14.150Z,6.20
2018-04-07T00:29:17.977Z,6.10
2018-04-07T00:32:22.189Z,6.10
2018-04-07T00:35:26.014Z,6.40
2018-04-07T00:38:34.913Z,6.20
2018-04-07T00:41:40.371Z,6.20
2018-04-07T00:44:45.053Z,6.10
2018-04-07T00:47:49.336Z,6.10
2018-04-07T00:50:53.931Z,5.80
2018-04-07T00:53:57.814Z,5.90
2018-04-07T00:57:01.749Z,5.80
2018-04-07T01:00:06.072Z,5.80
2018-04-07T01:03:09.997Z,5.40
2018-04-07T01:06:13.856Z,5.50
2018-04-07T01:09:18.173Z,5.30
2018-04-07T01:12:22.933Z,5.20
2018-04-07T01:15:26.819Z,5.10
2018-04-07T01:18:31.577Z,5.00
2018-04-07T01:21:35.768Z,4.80
2018-04-07T01:24:40.373Z,4.70
2018-04-07T01:27:44.602Z,4.60
2018-04-07T01:30:50.300Z,4.60
2018-04-07T01:33:54.895Z,4.70
2018-04-07T01:37:03.714Z,5.00
2018-04-07T01:40:07.645Z,4.70
2018-04-07T01:43:11.893Z,4.50
2018-04-07T01:46:16.492Z,4.60
2018-04-07T01:49:20.482Z,4.40
2018-04-07T01:52:25.084Z,4.40
2018-04-07T01:55:29.009Z,4.40
2018-04-07T01:58:33.617Z,4.40
2018-04-07T02:01:39.211Z,4.30
2018-04-07T02:04:43.098Z,4.50
2018-04-07T02:07:47.230Z,4.30
2018-04-07T02:10:51.508Z,4.40
2018-04-07T02:13:55.347Z,4.60
2018-04-07T02:16:59.176Z,4.50
2018-04-07T02:20:03.737Z,4.30
2018-04-07T02:23:08.856Z,4.30
2018-04-07T02:26:12.685Z,4.50
2018-04-07T02:29:16.967Z,4.20
2018-04-07T02:32:20.740Z,4.30
2018-04-07T02:35:28.855Z,4.30
2018-04-07T02:38:33.190Z,4.20
2018-04-07T02:41:37.868Z,4.30
2018-04-07T02:44:41.721Z,4.30
2018-04-07T02:47:45.980Z,4.30
2018-04-07T02:50:49.845Z,4.20
2018-04-07T02:53:54.847Z,4.10
2018-04-07T02:56:59.066Z,3.90
2018-04-07T03:00:03.510Z,4.10
2018-04-07T03:03:08.247Z,4.10
2018-04-07T03:06:12.062Z,4.00
2018-04-07T03:09:15.875Z,4.00
2018-04-07T03:12:20.517Z,4.10
2018-04-07T03:15:25.141Z,4.00
2018-04-07T03:18:29.100Z,3.80
2018-04-07T03:21:35.268Z,4.10
2018-04-07T03:24:39.843Z,4.10
2018-04-07T03:27:43.963Z,4.00
2018-04-07T03:30:49.323Z,4.20
2018-04-07T03:33:53.992Z,4.20
2018-04-07T03:36:58.245Z,3.50
2018-04-07T03:40:02.089Z,3.90
2018-04-07T03:43:06.613Z,4.00
2018-04-07T03:46:10.482Z,4.00
2018-04-07T03:49:15.304Z,4.00
2018-04-07T03:52:19.615Z,4.00
2018-04-07T03:55:24.844Z,4.00
2018-04-07T03:58:29.813Z,4.00
2018-04-07T04:01:35.437Z,4.00
2018-04-07T04:04:39.291Z,3.70
2018-04-07T04:07:43.907Z,3.80
2018-04-07T04:10:48.842Z,3.80
2018-04-07T04:13:52.660Z,3.80
2018-04-07T04:16:56.960Z,3.90
2018-04-07T04:20:00.873Z,4.10
2018-04-07T04:23:05.441Z,3.70
2018-04-07T04:26:09.441Z,3.50
2018-04-07T04:29:14.017Z,3.50
2018-04-07T04:32:17.853Z,3.70
2018-04-07T04:35:21.666Z,3.50
2018-04-07T04:38:25.556Z,3.60
2018-04-07T04:41:29.787Z,3.60
2018-04-07T04:44:34.204Z,3.50
2018-04-07T04:47:38.144Z,3.40
2018-04-07T04:50:42.360Z,3.70
2018-04-07T04:53:46.941Z,3.60
2018-04-07T04:56:53.496Z,3.60
2018-04-07T04:59:57.704Z,3.90
2018-04-07T05:03:01.921Z,4.00
2018-04-07T05:06:05.793Z,4.10
2018-04-07T05:09:10.164Z,4.10
2018-04-07T05:12:14.470Z,4.30
2018-04-07T05:15:18.761Z,4.40
2018-04-07T05:18:22.769Z,4.30
2018-04-07T05:21:26.804Z,4.40
2018-04-07T05:24:31.352Z,4.60
2018-04-07T05:27:35.934Z,4.60
2018-04-07T05:30:40.507Z,4.70
2018-04-07T05:33:44.746Z,5.00
2018-04-07T05:36:49.316Z,4.90
2018-04-07T05:39:53.250Z,5.10
2018-04-07T05:42:57.854Z,5.30
2018-04-07T05:46:01.693Z,5.30
2018-04-07T05:49:05.995Z,5.50
2018-04-07T05:52:10.499Z,5.60
2018-04-07T05:55:15.081Z,5.80
2018-04-07T05:58:19.141Z,6.20
2018-04-07T06:01:23.077Z,6.40
2018-04-07T06:04:26.981Z,6.20
2018-04-07T06:07:31.731Z,6.50
2018-04-07T06:10:35.579Z,6.70
2018-04-07T06:13:39.765Z,6.80
2018-04-07T06:16:43.609Z,6.80
2018-04-07T06:19:47.886Z,7.00
2018-04-07T06:22:52.618Z,7.20
2018-04-07T06:25:56.375Z,7.30
2018-04-07T06:29:00.332Z,7.50
2018-04-07T06:32:04.630Z,7.70
2018-04-07T06:35:08.789Z,7.60
2018-04-07T06:38:13.346Z,8.00
2018-04-07T06:41:17.178Z,8.30
2018-04-07T06:44:25.355Z,8.20
2018-04-07T06:47:29.251Z,8.20
2018-04-07T06:50:33.108Z,8.60
2018-04-07T06:53:36.901Z,8.60
2018-04-07T06:56:40.724Z,9.00
2018-04-07T06:59:45.086Z,8.90
2018-04-07T07:02:48.974Z,9.00
2018-04-07T07:05:54.376Z,9.20
2018-04-07T07:08:59.155Z,9.30
2018-04-07T07:12:02.986Z,9.50
2018-04-07T07:15:07.252Z,9.60
2018-04-07T07:18:11.479Z,9.60
2018-04-07T07:21:16.121Z,9.80
2018-04-07T07:24:21.259Z,9.90
2018-04-07T07:27:25.612Z,10.00
2018-04-07T07:30:30.582Z,10.30
2018-04-07T07:33:34.451Z,10.30
2018-04-07T07:36:39.027Z,10.40
2018-04-07T07:39:42.911Z,10.60
2018-04-07T07:42:47.773Z,10.70
2018-04-07T07:45:51.732Z,10.80
2018-04-07T07:48:56.432Z,10.90
2018-04-07T07:52:00.323Z,11.10
2018-04-07T07:55:04.581Z,11.30
2018-04-07T07:58:08.794Z,11.40
2018-04-07T08:01:13.630Z,11.40
2018-04-07T08:04:17.838Z,11.70
2018-04-07T08:07:22.208Z,11.90
2018-04-07T08:10:27.282Z,11.90
2018-04-07T08:13:31.382Z,11.90
2018-04-07T08:16:35.229Z,12.40
2018-04-07T08:19:39.454Z,12.40
2018-04-07T08:22:44.241Z,12.80
2018-04-07T08:25:48.417Z,13.40
2018-04-07T08:28:53.053Z,13.20
2018-04-07T08:31:58.456Z,13.30
2018-04-07T08:35:02.401Z,13.40
2018-04-07T08:38:07.097Z,13.70
2018-04-07T08:41:11.731Z,14.00
2018-04-07T08:44:15.568Z,14.60
2018-04-07T08:47:20.177Z,15.40
2018-04-07T08:50:24.439Z,16.10
2018-04-07T08:53:28.607Z,16.60
2018-04-07T08:56:32.932Z,16.60
2018-04-07T08:59:37.806Z,17.50
2018-04-07T09:02:42.823Z,17.90
2018-04-07T09:05:52.032Z,18.40
2018-04-07T09:08:57.340Z,17.80
2018-04-07T09:12:01.233Z,18.40
2018-04-07T09:15:07.719Z,18.00
2018-04-07T09:18:17.851Z,18.50
2018-04-07T09:21:22.131Z,19.00
2018-04-07T09:24:27.637Z,18.70
2018-04-07T09:27:32.587Z,19.10
2018-04-07T09:30:38.389Z,20.20
2018-04-07T09:33:43.419Z,20.70
2018-04-07T09:36:47.747Z,21.10
2018-04-07T09:39:52.121Z,21.10
2018-04-07T09:42:56.426Z,20.50
2018-04-07T09:46:00.970Z,21.50
2018-04-07T09:49:05.622Z,21.80
2018-04-07T09:52:10.215Z,22.00
2018-04-07T09:55:14.079Z,20.80
2018-04-07T09:58:18.625Z,20.70
2018-04-07T10:01:29.593Z,21.60
2018-04-07T10:04:34.766Z,22.00
2018-04-07T10:07:38.785Z,22.50
2018-04-07T10:10:42.616Z,23.40
2018-04-07T10:13:46.632Z,23.30
2018-04-07T10:16:50.823Z,23.10
2018-04-07T10:19:54.732Z,22.50
2018-04-07T10:22:58.978Z,23.50
2018-04-07T10:26:03.882Z,23.50
2018-04-07T10:29:08.511Z,24.00
2018-04-07T10:32:12.422Z,24.80
2018-04-07T10:35:16.332Z,25.30
2018-04-07T10:38:21.351Z,25.10
2018-04-07T10:41:26.078Z,25.50
2018-04-07T10:44:29.989Z,25.50
2018-04-07T10:47:33.908Z,25.40
2018-04-07T10:50:39.062Z,24.80
2018-04-07T10:53:43.715Z,23.30
2018-04-07T10:56:47.565Z,24.30
2018-04-07T10:59:51.887Z,24.30
2018-04-07T11:02:55.826Z,24.70
2018-04-07T11:06:00.157Z,25.20
2018-04-07T11:09:04.041Z,25.40
2018-04-07T11:12:07.952Z,25.00
2018-04-07T11:18:18.505Z,26.90
2018-04-07T11:21:22.476Z,26.60
2018-04-07T11:24:26.779Z,25.70
2018-04-07T11:27:31.395Z,27.00
2018-04-07T11:30:35.397Z,27.90
2018-04-07T11:33:39.307Z,28.20
2018-04-07T11:36:43.263Z,27.10
2018-04-07T11:39:47.268Z,27.20
2018-04-07T11:42:51.168Z,26.60
2018-04-07T11:45:55.250Z,26.40
2018-04-07T11:49:00.220Z,27.10
2018-04-07T11:52:04.125Z,27.20
2018-04-07T11:55:10.094Z,27.30
2018-04-07T11:58:16.409Z,27.20
2018-04-07T12:01:22.289Z,27.40
2018-04-07T12:04:26.593Z,27.90
2018-04-07T12:07:31.314Z,28.00
2018-04-07T12:10:38.363Z,27.70
2018-04-07T12:13:44.500Z,28.00
2018-04-07T12:16:49.431Z,27.40
2018-04-07T12:19:59.130Z,26.60
2018-04-07T12:23:03.554Z,26.80
2018-04-07T12:26:09.650Z,27.00
2018-04-07T12:29:13.872Z,28.10
2018-04-07T12:32:18.899Z,28.50
2018-04-07T12:35:22.857Z,27.60
2018-04-07T12:38:28.133Z,28.50
2018-04-07T12:41:35.169Z,28.60
2018-04-07T12:44:40.257Z,29.10
2018-04-07T12:47:45.652Z,29.70
2018-04-07T12:50:50.607Z,29.10
2018-04-07T12:53:54.987Z,29.20
2018-04-07T12:56:59.782Z,29.20
2018-04-07T13:00:05.036Z,29.40
2018-04-07T13:03:11.137Z,29.20
2018-04-07T13:06:17.537Z,28.90
2018-04-07T13:09:22.744Z,28.40
2018-04-07T13:12:27.962Z,28.20
2018-04-07T13:15:32.433Z,28.70
2018-04-07T13:18:37.666Z,28.20
2018-04-07T13:21:42.318Z,29.50
2018-04-07T13:24:46.372Z,29.40
2018-04-07T13:27:52.024Z,29.30
2018-04-07T13:30:57.481Z,30.00
2018-04-07T13:34:02.800Z,28.60
2018-04-07T13:37:08.290Z,29.80
2018-04-07T13:40:12.494Z,28.50
2018-04-07T13:43:17.826Z,28.90
2018-04-07T13:46:22.766Z,28.80
2018-04-07T13:49:28.505Z,29.70
2018-04-07T13:52:33.039Z,29.10
2018-04-07T13:55:38.912Z,29.70
2018-04-07T13:58:43.736Z,30.20
2018-04-07T14:01:49.063Z,29.90
2018-04-07T14:04:54.246Z,27.70
2018-04-07T14:07:58.208Z,28.20
2018-04-07T14:11:03.629Z,28.30
2018-04-07T14:14:09.722Z,28.50
2018-04-07T14:17:13.771Z,28.20
2018-04-07T14:20:19.101Z,29.30
2018-04-07T14:23:24.188Z,29.90
2018-04-07T14:26:28.220Z,30.20
2018-04-07T14:29:32.006Z,30.10
2018-04-07T14:32:35.971Z,29.90
2018-04-07T14:35:39.887Z,30.00
2018-04-07T14:38:43.938Z,30.00
2018-04-07T14:41:47.769Z,30.10
2018-04-07T14:44:53.024Z,29.30
2018-04-07T14:51:07.473Z,30.60
2018-04-07T14:54:11.700Z,29.60
2018-04-07T14:57:15.640Z,30.40
2018-04-07T15:00:20.345Z,30.80
2018-04-07T15:03:24.806Z,28.80
2018-04-07T15:06:29.392Z,28.20
2018-04-07T15:09:33.762Z,28.80
2018-04-07T15:12:37.694Z,30.40
2018-04-07T15:15:41.749Z,29.50
2018-04-07T15:18:45.707Z,29.50
2018-04-07T15:21:49.525Z,29.90
2018-04-07T15:24:53.394Z,29.50
2018-04-07T15:27:57.309Z,28.90
2018-04-07T15:31:01.207Z,29.10
2018-04-07T15:34:05.997Z,29.20
2018-04-07T15:37:09.901Z,28.40
2018-04-07T15:40:13.915Z,28.20
2018-04-07T15:43:18.500Z,28.40
2018-04-07T15:46:22.364Z,28.70
2018-04-07T15:49:26.194Z,28.70
2018-04-07T15:52:30.840Z,29.10
2018-04-07T15:55:35.943Z,27.80
2018-04-07T15:58:40.644Z,27.80
2018-04-07T16:01:47.925Z,27.80
2018-04-07T16:04:51.829Z,27.80
2018-04-07T16:07:55.684Z,28.30
2018-04-07T16:10:59.922Z,28.80
2018-04-07T16:14:03.831Z,28.50
2018-04-07T16:17:07.682Z,28.30
2018-04-07T16:20:11.570Z,28.60
2018-04-07T16:23:15.926Z,28.60
2018-04-07T16:26:19.873Z,27.50
2018-04-07T16:29:24.661Z,26.70
2018-04-07T16:32:28.577Z,26.90
2018-04-07T16:35:32.506Z,27.40
2018-04-07T16:38:36.845Z,28.30
2018-04-07T16:41:41.572Z,28.00
2018-04-07T16:44:45.486Z,27.80
2018-04-07T16:47:50.113Z,27.70
2018-04-07T16:50:53.920Z,27.90
2018-04-07T16:53:57.862Z,27.60
2018-04-07T16:57:02.081Z,26.40
2018-04-07T17:00:05.901Z,26.00
2018-04-07T17:03:10.997Z,26.30
2018-04-07T17:06:15.542Z,26.20
2018-04-07T17:09:20.628Z,25.80
2018-04-07T17:12:25.740Z,25.30
2018-04-07T17:15:29.569Z,25.40
2018-04-07T17:18:34.501Z,25.40
2018-04-07T17:21:38.334Z,24.90
2018-04-07T17:24:42.204Z,24.50
2018-04-07T17:27:46.385Z,24.20
2018-04-07T17:30:50.237Z,24.50
2018-04-07T17:33:54.461Z,24.00
2018-04-07T17:36:58.401Z,23.50
2018-04-07T17:40:02.370Z,23.20
2018-04-07T17:43:06.270Z,23.00
2018-04-07T17:46:10.138Z,22.70
2018-04-07T17:49:13.979Z,22.30
2018-04-07T17:52:18.290Z,22.50
2018-04-07T17:55:23.022Z,22.30
2018-04-07T17:58:26.864Z,21.90
2018-04-07T18:01:30.739Z,22.10
2018-04-07T18:04:34.650Z,21.50
2018-04-07T18:07:38.565Z,21.30
2018-04-07T18:10:43.174Z,21.30
2018-04-07T18:13:47.554Z,21.10
2018-04-07T18:16:51.402Z,21.30
2018-04-07T18:19:55.863Z,21.00
2018-04-07T18:23:00.151Z,21.00
2018-04-07T18:26:04.471Z,20.20
2018-04-07T18:29:08.280Z,20.00
2018-04-07T18:32:12.834Z,19.60
2018-04-07T18:35:17.187Z,19.50
2018-04-07T18:38:21.037Z,19.10
2018-04-07T18:41:26.140Z,19.10
2018-04-07T18:44:31.337Z,19.00
2018-04-07T18:47:35.235Z,18.80
2018-04-07T18:50:39.845Z,18.70
2018-04-07T18:53:45.070Z,18.60
2018-04-07T18:56:49.062Z,18.70
2018-04-07T18:59:53.481Z,18.50
2018-04-07T19:02:58.245Z,18.20
2018-04-07T19:06:02.869Z,18.00
2018-04-07T19:09:06.846Z,17.70
2018-04-07T19:12:11.537Z,17.60
2018-04-07T19:15:16.213Z,17.50
2018-04-07T19:18:21.129Z,17.40
2018-04-07T19:21:25.749Z,17.30
2018-04-07T19:24:29.659Z,17.10
2018-04-07T19:27:35.158Z,17.10
2018-04-07T19:30:39.142Z,16.80
2018-04-07T19:33:43.081Z,16.40
2018-04-07T19:36:47.681Z,16.40
2018-04-07T19:39:52.490Z,16.10
2018-04-07T19:42:57.249Z,16.10
2018-04-07T19:46:01.184Z,16.00
2018-04-07T19:49:05.508Z,16.10
2018-04-07T19:52:09.679Z,16.20
2018-04-07T19:55:14.298Z,15.90
2018-04-07T19:58:18.250Z,15.60
2018-04-07T20:01:22.208Z,15.60
2018-04-07T20:04:26.902Z,15.60
2018-04-07T20:07:31.448Z,15.50
2018-04-07T20:10:36.000Z,15.50
2018-04-07T20:13:40.632Z,15.30
2018-04-07T20:16:44.873Z,15.20
2018-04-07T20:19:49.509Z,15.10
2018-04-07T20:22:54.741Z,15.10
2018-04-07T20:25:58.773Z,15.20
2018-04-07T20:29:03.446Z,15.10
2018-04-07T20:32:08.208Z,15.00
2018-04-07T20:35:12.070Z,15.00
2018-04-07T20:38:16.723Z,14.90
2018-04-07T20:41:21.349Z,15.00
2018-04-07T20:44:33.881Z,14.90
2018-04-07T20:47:37.717Z,14.80
2018-04-07T20:50:42.405Z,14.60
2018-04-07T20:53:47.172Z,14.60
2018-04-07T20:56:51.773Z,14.50
2018-04-07T20:59:56.386Z,14.50
2018-04-07T21:03:00.262Z,14.40
2018-04-07T21:06:04.206Z,14.40
2018-04-07T21:09:12.384Z,14.30
2018-04-07T21:12:17.397Z,14.10
2018-04-07T21:15:21.278Z,14.10
2018-04-07T21:18:26.121Z,14.10
2018-04-07T21:21:30.430Z,14.10
2018-04-07T21:24:34.673Z,14.20
2018-04-07T21:27:38.933Z,14.30
2018-04-07T21:30:43.593Z,13.90
2018-04-07T21:33:48.474Z,13.70
2018-04-07T21:36:53.132Z,13.70
2018-04-07T21:39:57.725Z,13.60
2018-04-07T21:43:02.329Z,13.60
2018-04-07T21:46:06.503Z,13.70
2018-04-07T21:49:10.966Z,13.60
2018-04-07T21:52:14.777Z,13.70
2018-04-07T21:55:18.672Z,13.30
2018-04-07T21:58:22.633Z,13.60
2018-04-07T22:01:26.567Z,13.60
2018-04-07T22:04:31.201Z,13.40
2018-04-07T22:07:35.852Z,13.40
2018-04-07T22:10:40.533Z,13.20
2018-04-07T22:13:45.101Z,13.10
2018-04-07T22:16:49.103Z,13.10
2018-04-07T22:19:53.725Z,12.80
2018-04-07T22:22:57.637Z,12.60
2018-04-07T22:26:01.938Z,12.60
2018-04-07T22:29:06.905Z,12.60
2018-04-07T22:32:11.275Z,12.60
2018-04-07T22:35:15.489Z,12.60
2018-04-07T22:38:19.744Z,12.60
2018-04-07T22:41:23.963Z,12.50
2018-04-07T22:44:28.532Z,12.30
2018-04-07T22:47:34.148Z,12.10
2018-04-07T22:50:38.273Z,12.10
2018-04-07T22:53:42.901Z,11.90
2018-04-07T22:56:48.901Z,11.90
2018-04-07T22:59:52.880Z,11.80
2018-04-07T23:02:56.717Z,11.50
2018-04-07T23:06:00.593Z,11.50
2018-04-07T23:09:06.039Z,11.40
2018-04-07T23:12:09.851Z,11.30
2018-04-07T23:15:13.800Z,11.20
2018-04-07T23:18:17.669Z,11.10
2018-04-07T23:21:21.700Z,11.20
2018-04-07T23:24:26.432Z,11.20
2018-04-07T23:27:30.259Z,11.00
2018-04-07T23:30:35.381Z,11.20
2018-04-07T23:33:39.261Z,11.50
2018-04-07T23:36:43.135Z,11.40
2018-04-07T23:39:48.278Z,11.40
2018-04-07T23:42:52.620Z,11.40
2018-04-07T23:45:57.120Z,11.30
2018-04-07T23:49:00.929Z,11.40
2018-04-07T23:52:05.569Z,11.20
2018-04-07T23:55:10.233Z,11.20
2018-04-07T23:58:14.596Z,11.10
